sensor_id;sensor_type;location;lat;lon;timestamp;temperature;humidity
12470;DHT22;36499;46.484;13.832;2023-03-04T00:00:36;0.30;99.90
12470;DHT22;36499;46.484;13.832;2023-03-04T00:03:07;0.30;99.90
12470;DHT22;36499;46.484;13.832;2023-03-04T00:05:35;0.20;99.90
12470;DHT22;36499;46.484;13.832;2023-03-04T00:08:02;0.20;99.90
12470;DHT22;36499;46.484;13.832;2023-03-04T00:10:29;0.20;99.90
12470;DHT22;36499;46.484;13.832;2023-03-04T00:12:56;0.20;99.90
12470;DHT22;36499;46.484;13.832;2023-03-04T00:15:23;0.20;99.90
12470;DHT22;36499;46.484;13.832;2023-03-04T00:17:52;0.20;99.90
12470;DHT22;36499;46.484;13.832;2023-03-04T00:20:19;0.20;99.90
12470;DHT22;36499;46.484;13.832;2023-03-04T00:22:46;0.10;99.90
12470;DHT22;36499;46.484;13.832;2023-03-04T00:25:13;0.10;99.90
12470;DHT22;36499;46.484;13.832;2023-03-04T00:27:40;0.10;99.90
12470;DHT22;36499;46.484;13.832;2023-03-04T00:30:09;0.00;99.90
12470;DHT22;36499;46.484;13.832;2023-03-04T00:32:36;-0.10;99.90
12470;DHT22;36499;46.484;13.832;2023-03-04T00:35:06;-0.10;99.90
12470;DHT22;36499;46.484;13.832;2023-03-04T00:37:33;-0.20;99.90
12470;DHT22;36499;46.484;13.832;2023-03-04T00:40:00;-0.20;99.90
12470;DHT22;36499;46.484;13.832;2023-03-04T00:42:27;-0.30;99.90
12470;DHT22;36499;46.484;13.832;2023-03-04T00:44:54;-0.30;99.90
12470;DHT22;36499;46.484;13.832;2023-03-04T00:47:21;-0.30;99.90
12470;DHT22;36499;46.484;13.832;2023-03-04T00:49:48;-0.30;99.90
12470;DHT22;36499;46.484;13.832;2023-03-04T00:52:17;-0.40;99.90
12470;DHT22;36499;46.484;13.832;2023-03-04T00:54:44;-0.40;99.90
12470;DHT22;36499;46.484;13.832;2023-03-04T00:57:11;-0.40;99.90
12470;DHT22;36499;46.484;13.832;2023-03-04T00:59:38;-0.40;99.90
12470;DHT22;36499;46.484;13.832;2023-03-04T01:02:08;-0.40;99.90
12470;DHT22;36499;46.484;13.832;2023-03-04T01:04:35;-0.40;99.90
12470;DHT22;36499;46.484;13.832;2023-03-04T01:07:03;-0.40;99.90
12470;DHT22;36499;46.484;13.832;2023-03-04T01:09:31;-0.40;99.90
12470;DHT22;36499;46.484;13.832;2023-03-04T01:11:58;-0.40;99.90
12470;DHT22;36499;46.484;13.832;2023-03-04T01:14:25;-0.40;99.90
12470;DHT22;36499;46.484;13.832;2023-03-04T01:16:53;-0.40;99.90
12470;DHT22;36499;46.484;13.832;2023-03-04T01:19:20;-0.40;99.90
12470;DHT22;36499;46.484;13.832;2023-03-04T01:21:47;-0.50;99.90
12470;DHT22;36499;46.484;13.832;2023-03-04T01:24:14;-0.50;99.90
12470;DHT22;36499;46.484;13.832;2023-03-04T01:26:43;-0.50;99.90
12470;DHT22;36499;46.484;13.832;2023-03-04T01:29:10;-0.50;99.90
12470;DHT22;36499;46.484;13.832;2023-03-04T01:31:37;-0.50;99.90
12470;DHT22;36499;46.484;13.832;2023-03-04T01:34:04;-0.50;99.90
12470;DHT22;36499;46.484;13.832;2023-03-04T01:36:31;-0.60;99.90
12470;DHT22;36499;46.484;13.832;2023-03-04T01:38:58;-0.50;99.90
12470;DHT22;36499;46.484;13.832;2023-03-04T01:41:26;-0.60;99.90
12470;DHT22;36499;46.484;13.832;2023-03-04T01:43:57;-0.60;99.90
12470;DHT22;36499;46.484;13.832;2023-03-04T01:46:27;-0.60;99.90
12470;DHT22;36499;46.484;13.832;2023-03-04T01:48:56;-0.70;99.90
12470;DHT22;36499;46.484;13.832;2023-03-04T01:51:23;-0.70;99.90
12470;DHT22;36499;46.484;13.832;2023-03-04T01:53:51;-0.70;99.90
12470;DHT22;36499;46.484;13.832;2023-03-04T01:56:22;-0.70;99.90
12470;DHT22;36499;46.484;13.832;2023-03-04T01:59:10;-0.70;99.90
12470;DHT22;36499;46.484;13.832;2023-03-04T02:01:40;-0.70;99.90
12470;DHT22;36499;46.484;13.832;2023-03-04T02:04:10;-0.70;99.90
12470;DHT22;36499;46.484;13.832;2023-03-04T02:06:38;-0.70;99.90
12470;DHT22;36499;46.484;13.832;2023-03-04T02:09:07;-0.60;99.90
12470;DHT22;36499;46.484;13.832;2023-03-04T02:11:35;-0.60;99.90
12470;DHT22;36499;46.484;13.832;2023-03-04T02:14:04;-0.60;99.90
12470;DHT22;36499;46.484;13.832;2023-03-04T02:16:34;-0.60;99.90
12470;DHT22;36499;46.484;13.832;2023-03-04T02:19:01;-0.60;99.90
12470;DHT22;36499;46.484;13.832;2023-03-04T02:21:33;-0.60;99.90
12470;DHT22;36499;46.484;13.832;2023-03-04T02:24:07;-0.60;99.90
12470;DHT22;36499;46.484;13.832;2023-03-04T02:26:43;-0.60;99.90
12470;DHT22;36499;46.484;13.832;2023-03-04T02:29:13;-0.70;99.90
12470;DHT22;36499;46.484;13.832;2023-03-04T02:31:43;-0.70;99.90
12470;DHT22;36499;46.484;13.832;2023-03-04T02:34:14;-0.60;99.90
12470;DHT22;36499;46.484;13.832;2023-03-04T02:36:44;-0.70;99.90
12470;DHT22;36499;46.484;13.832;2023-03-04T02:39:22;-0.70;99.90
12470;DHT22;36499;46.484;13.832;2023-03-04T02:41:55;-0.80;99.90
12470;DHT22;36499;46.484;13.832;2023-03-04T02:44:24;-0.80;99.90
12470;DHT22;36499;46.484;13.832;2023-03-04T02:46:52;-0.90;99.90
12470;DHT22;36499;46.484;13.832;2023-03-04T02:49:21;-0.90;99.90
12470;DHT22;36499;46.484;13.832;2023-03-04T02:51:51;-0.90;99.90
12470;DHT22;36499;46.484;13.832;2023-03-04T02:54:23;-0.80;99.90
12470;DHT22;36499;46.484;13.832;2023-03-04T02:56:52;-0.90;99.90
12470;DHT22;36499;46.484;13.832;2023-03-04T02:59:23;-0.80;99.90
12470;DHT22;36499;46.484;13.832;2023-03-04T03:01:50;-0.80;99.90
12470;DHT22;36499;46.484;13.832;2023-03-04T03:04:19;-0.90;99.90
12470;DHT22;36499;46.484;13.832;2023-03-04T03:06:47;-0.90;99.90
12470;DHT22;36499;46.484;13.832;2023-03-04T03:09:15;-0.90;99.90
12470;DHT22;36499;46.484;13.832;2023-03-04T03:11:42;-0.90;99.90
12470;DHT22;36499;46.484;13.832;2023-03-04T03:14:11;-0.90;99.90
12470;DHT22;36499;46.484;13.832;2023-03-04T03:16:38;-0.90;99.90
12470;DHT22;36499;46.484;13.832;2023-03-04T03:19:05;-0.90;99.90
12470;DHT22;36499;46.484;13.832;2023-03-04T03:21:32;-1.00;99.90
12470;DHT22;36499;46.484;13.832;2023-03-04T03:23:59;-0.90;99.90
12470;DHT22;36499;46.484;13.832;2023-03-04T03:26:26;-1.00;99.90
12470;DHT22;36499;46.484;13.832;2023-03-04T03:28:53;-1.00;99.90
12470;DHT22;36499;46.484;13.832;2023-03-04T03:31:22;-1.00;99.90
12470;DHT22;36499;46.484;13.832;2023-03-04T03:33:49;-0.90;99.90
12470;DHT22;36499;46.484;13.832;2023-03-04T03:36:16;-0.90;99.90
12470;DHT22;36499;46.484;13.832;2023-03-04T03:38:43;-0.90;99.90
12470;DHT22;36499;46.484;13.832;2023-03-04T03:41:10;-0.80;99.90
12470;DHT22;36499;46.484;13.832;2023-03-04T03:43:37;-0.80;99.90
12470;DHT22;36499;46.484;13.832;2023-03-04T03:46:04;-0.80;99.90
12470;DHT22;36499;46.484;13.832;2023-03-04T03:48:33;-0.80;99.90
12470;DHT22;36499;46.484;13.832;2023-03-04T03:51:00;-0.80;99.90
12470;DHT22;36499;46.484;13.832;2023-03-04T03:53:27;-0.80;99.90
12470;DHT22;36499;46.484;13.832;2023-03-04T03:55:54;-0.80;99.90
12470;DHT22;36499;46.484;13.832;2023-03-04T03:58:21;-0.70;99.90
12470;DHT22;36499;46.484;13.832;2023-03-04T04:00:48;-0.70;99.90
12470;DHT22;36499;46.484;13.832;2023-03-04T04:03:16;-0.70;99.90
12470;DHT22;36499;46.484;13.832;2023-03-04T04:05:44;-0.70;99.90
12470;DHT22;36499;46.484;13.832;2023-03-04T04:08:12;-0.70;99.90
12470;DHT22;36499;46.484;13.832;2023-03-04T04:10:40;-0.70;99.90
12470;DHT22;36499;46.484;13.832;2023-03-04T04:13:07;-0.80;99.90
12470;DHT22;36499;46.484;13.832;2023-03-04T04:15:35;-0.70;99.90
12470;DHT22;36499;46.484;13.832;2023-03-04T04:18:03;-0.70;99.90
12470;DHT22;36499;46.484;13.832;2023-03-04T04:20:30;-0.80;99.90
12470;DHT22;36499;46.484;13.832;2023-03-04T04:22:59;-0.70;99.90
12470;DHT22;36499;46.484;13.832;2023-03-04T04:25:26;-0.70;99.90
12470;DHT22;36499;46.484;13.832;2023-03-04T04:27:53;-0.70;99.90
12470;DHT22;36499;46.484;13.832;2023-03-04T04:30:20;-0.70;99.90
12470;DHT22;36499;46.484;13.832;2023-03-04T04:32:47;-0.70;99.90
12470;DHT22;36499;46.484;13.832;2023-03-04T04:35:15;-0.60;99.90
12470;DHT22;36499;46.484;13.832;2023-03-04T04:37:42;-0.70;99.90
12470;DHT22;36499;46.484;13.832;2023-03-04T04:40:11;-0.60;99.90
12470;DHT22;36499;46.484;13.832;2023-03-04T04:42:39;-0.60;99.90
12470;DHT22;36499;46.484;13.832;2023-03-04T04:45:07;-0.70;99.90
12470;DHT22;36499;46.484;13.832;2023-03-04T04:47:35;-0.70;99.90
12470;DHT22;36499;46.484;13.832;2023-03-04T04:50:03;-0.80;99.90
12470;DHT22;36499;46.484;13.832;2023-03-04T04:52:30;-0.80;99.90
12470;DHT22;36499;46.484;13.832;2023-03-04T04:54:57;-0.80;99.90
12470;DHT22;36499;46.484;13.832;2023-03-04T04:57:26;-0.90;99.90
12470;DHT22;36499;46.484;13.832;2023-03-04T04:59:53;-0.80;99.90
12470;DHT22;36499;46.484;13.832;2023-03-04T05:02:20;-0.90;99.90
12470;DHT22;36499;46.484;13.832;2023-03-04T05:04:47;-0.90;99.90
12470;DHT22;36499;46.484;13.832;2023-03-04T05:07:14;-0.90;99.90
12470;DHT22;36499;46.484;13.832;2023-03-04T05:09:41;-0.90;99.90
12470;DHT22;36499;46.484;13.832;2023-03-04T05:12:08;-1.00;99.90
12470;DHT22;36499;46.484;13.832;2023-03-04T05:14:37;-0.90;99.90
12470;DHT22;36499;46.484;13.832;2023-03-04T05:17:04;-1.00;99.90
12470;DHT22;36499;46.484;13.832;2023-03-04T05:19:31;-0.90;99.90
12470;DHT22;36499;46.484;13.832;2023-03-04T05:21:58;-1.00;99.90
12470;DHT22;36499;46.484;13.832;2023-03-04T05:24:25;-1.10;99.90
12470;DHT22;36499;46.484;13.832;2023-03-04T05:26:52;-1.10;99.90
12470;DHT22;36499;46.484;13.832;2023-03-04T05:29:19;-1.10;99.90
12470;DHT22;36499;46.484;13.832;2023-03-04T05:31:48;-1.20;99.90
12470;DHT22;36499;46.484;13.832;2023-03-04T05:34:15;-1.20;99.90
12470;DHT22;36499;46.484;13.832;2023-03-04T05:36:42;-1.20;99.90
12470;DHT22;36499;46.484;13.832;2023-03-04T05:39:10;-1.20;99.90
12470;DHT22;36499;46.484;13.832;2023-03-04T05:41:37;-1.20;99.90
12470;DHT22;36499;46.484;13.832;2023-03-04T05:44:04;-1.10;99.90
12470;DHT22;36499;46.484;13.832;2023-03-04T05:46:31;-1.20;99.90
12470;DHT22;36499;46.484;13.832;2023-03-04T05:49:00;-1.20;99.90
12470;DHT22;36499;46.484;13.832;2023-03-04T05:51:27;-1.20;99.90
12470;DHT22;36499;46.484;13.832;2023-03-04T05:53:54;-1.20;99.90
12470;DHT22;36499;46.484;13.832;2023-03-04T05:56:21;-1.20;99.90
12470;DHT22;36499;46.484;13.832;2023-03-04T05:58:48;-1.20;99.90
12470;DHT22;36499;46.484;13.832;2023-03-04T06:01:15;-1.20;99.90
12470;DHT22;36499;46.484;13.832;2023-03-04T06:03:42;-1.20;99.90
12470;DHT22;36499;46.484;13.832;2023-03-04T06:06:11;-1.20;99.90
12470;DHT22;36499;46.484;13.832;2023-03-04T06:08:38;-1.20;99.90
12470;DHT22;36499;46.484;13.832;2023-03-04T06:11:05;-1.10;99.90
12470;DHT22;36499;46.484;13.832;2023-03-04T06:13:34;-1.10;99.90
12470;DHT22;36499;46.484;13.832;2023-03-04T06:16:03;-1.00;99.90
12470;DHT22;36499;46.484;13.832;2023-03-04T06:18:30;-1.00;99.90
12470;DHT22;36499;46.484;13.832;2023-03-04T06:20:59;-1.00;99.90
12470;DHT22;36499;46.484;13.832;2023-03-04T06:23:30;-1.00;99.90
12470;DHT22;36499;46.484;13.832;2023-03-04T06:25:58;-0.80;99.90
12470;DHT22;36499;46.484;13.832;2023-03-04T06:28:27;-0.70;99.90
12470;DHT22;36499;46.484;13.832;2023-03-04T06:30:55;-0.60;99.90
12470;DHT22;36499;46.484;13.832;2023-03-04T06:33:23;-0.60;99.90
12470;DHT22;36499;46.484;13.832;2023-03-04T06:35:53;-0.50;99.90
12470;DHT22;36499;46.484;13.832;2023-03-04T06:38:21;-0.40;99.90
12470;DHT22;36499;46.484;13.832;2023-03-04T06:40:49;-0.30;99.90
12470;DHT22;36499;46.484;13.832;2023-03-04T06:43:17;-0.30;99.90
12470;DHT22;36499;46.484;13.832;2023-03-04T06:45:44;-0.20;99.90
12470;DHT22;36499;46.484;13.832;2023-03-04T06:48:12;-0.10;99.90
12470;DHT22;36499;46.484;13.832;2023-03-04T06:50:39;0.00;99.90
12470;DHT22;36499;46.484;13.832;2023-03-04T06:53:06;0.10;99.90
12470;DHT22;36499;46.484;13.832;2023-03-04T06:55:33;0.10;99.90
12470;DHT22;36499;46.484;13.832;2023-03-04T06:58:02;0.30;99.90
12470;DHT22;36499;46.484;13.832;2023-03-04T07:00:29;0.30;99.90
12470;DHT22;36499;46.484;13.832;2023-03-04T07:02:57;0.40;99.90
12470;DHT22;36499;46.484;13.832;2023-03-04T07:05:25;0.40;99.90
12470;DHT22;36499;46.484;13.832;2023-03-04T07:07:52;0.50;99.90
12470;DHT22;36499;46.484;13.832;2023-03-04T07:10:19;0.60;99.90
12470;DHT22;36499;46.484;13.832;2023-03-04T07:12:47;0.80;99.90
12470;DHT22;36499;46.484;13.832;2023-03-04T07:15:16;0.90;99.90
12470;DHT22;36499;46.484;13.832;2023-03-04T07:17:43;1.00;99.90
12470;DHT22;36499;46.484;13.832;2023-03-04T07:20:11;1.10;99.90
12470;DHT22;36499;46.484;13.832;2023-03-04T07:22:38;1.20;99.90
12470;DHT22;36499;46.484;13.832;2023-03-04T07:25:06;1.30;99.90
12470;DHT22;36499;46.484;13.832;2023-03-04T07:27:33;1.40;99.90
12470;DHT22;36499;46.484;13.832;2023-03-04T07:30:03;1.50;99.90
12470;DHT22;36499;46.484;13.832;2023-03-04T07:32:32;1.70;99.90
12470;DHT22;36499;46.484;13.832;2023-03-04T07:35:00;1.80;99.90
12470;DHT22;36499;46.484;13.832;2023-03-04T07:37:28;1.90;99.90
12470;DHT22;36499;46.484;13.832;2023-03-04T07:39:55;2.10;99.90
12470;DHT22;36499;46.484;13.832;2023-03-04T07:42:22;2.20;99.90
12470;DHT22;36499;46.484;13.832;2023-03-04T07:44:49;2.30;99.90
12470;DHT22;36499;46.484;13.832;2023-03-04T07:47:16;2.40;99.90
12470;DHT22;36499;46.484;13.832;2023-03-04T07:49:45;2.50;99.90
12470;DHT22;36499;46.484;13.832;2023-03-04T07:52:12;2.60;99.90
12470;DHT22;36499;46.484;13.832;2023-03-04T07:54:39;2.70;99.90
12470;DHT22;36499;46.484;13.832;2023-03-04T07:57:06;2.80;99.90
12470;DHT22;36499;46.484;13.832;2023-03-04T07:59:33;2.80;99.90
12470;DHT22;36499;46.484;13.832;2023-03-04T08:02:00;2.90;99.90
12470;DHT22;36499;46.484;13.832;2023-03-04T08:04:27;3.00;99.90
12470;DHT22;36499;46.484;13.832;2023-03-04T08:06:56;3.00;99.90
12470;DHT22;36499;46.484;13.832;2023-03-04T08:09:23;3.00;99.90
12470;DHT22;36499;46.484;13.832;2023-03-04T08:11:50;3.10;99.90
12470;DHT22;36499;46.484;13.832;2023-03-04T08:14:17;3.20;99.90
12470;DHT22;36499;46.484;13.832;2023-03-04T08:16:45;3.20;99.90
12470;DHT22;36499;46.484;13.832;2023-03-04T08:19:12;3.30;99.90
12470;DHT22;36499;46.484;13.832;2023-03-04T08:21:39;3.50;99.90
12470;DHT22;36499;46.484;13.832;2023-03-04T08:24:09;3.50;99.90
12470;DHT22;36499;46.484;13.832;2023-03-04T08:26:38;3.70;99.90
12470;DHT22;36499;46.484;13.832;2023-03-04T08:29:09;3.80;99.90
12470;DHT22;36499;46.484;13.832;2023-03-04T08:31:38;3.90;99.90
12470;DHT22;36499;46.484;13.832;2023-03-04T08:34:07;4.00;99.90
12470;DHT22;36499;46.484;13.832;2023-03-04T08:36:36;4.10;99.90
12470;DHT22;36499;46.484;13.832;2023-03-04T08:39:03;4.20;99.90
12470;DHT22;36499;46.484;13.832;2023-03-04T08:41:32;4.20;99.90
12470;DHT22;36499;46.484;13.832;2023-03-04T08:43:59;4.30;99.90
12470;DHT22;36499;46.484;13.832;2023-03-04T08:46:27;4.40;99.90
12470;DHT22;36499;46.484;13.832;2023-03-04T08:48:55;4.50;99.90
12470;DHT22;36499;46.484;13.832;2023-03-04T08:51:22;4.50;99.90
12470;DHT22;36499;46.484;13.832;2023-03-04T08:53:49;4.60;99.90
12470;DHT22;36499;46.484;13.832;2023-03-04T08:56:17;4.60;99.90
12470;DHT22;36499;46.484;13.832;2023-03-04T08:58:46;4.80;99.90
12470;DHT22;36499;46.484;13.832;2023-03-04T09:01:14;4.90;99.90
12470;DHT22;36499;46.484;13.832;2023-03-04T09:03:42;5.10;99.90
12470;DHT22;36499;46.484;13.832;2023-03-04T09:06:11;5.20;99.90
12470;DHT22;36499;46.484;13.832;2023-03-04T09:08:41;5.20;99.90
12470;DHT22;36499;46.484;13.832;2023-03-04T09:11:09;5.30;99.90
12470;DHT22;36499;46.484;13.832;2023-03-04T09:13:37;5.40;99.90
12470;DHT22;36499;46.484;13.832;2023-03-04T09:16:10;5.50;99.90
12470;DHT22;36499;46.484;13.832;2023-03-04T09:18:39;5.60;99.90
12470;DHT22;36499;46.484;13.832;2023-03-04T09:21:07;5.70;99.90
12470;DHT22;36499;46.484;13.832;2023-03-04T09:23:35;5.80;99.90
12470;DHT22;36499;46.484;13.832;2023-03-04T09:26:13;5.90;99.90
12470;DHT22;36499;46.484;13.832;2023-03-04T09:28:41;6.00;99.90
12470;DHT22;36499;46.484;13.832;2023-03-04T09:31:13;6.10;99.90
12470;DHT22;36499;46.484;13.832;2023-03-04T09:33:41;6.20;99.90
12470;DHT22;36499;46.484;13.832;2023-03-04T09:36:09;6.30;99.90
12470;DHT22;36499;46.484;13.832;2023-03-04T09:38:37;6.40;99.90
12470;DHT22;36499;46.484;13.832;2023-03-04T09:41:08;6.40;99.90
12470;DHT22;36499;46.484;13.832;2023-03-04T09:43:39;6.50;99.90
12470;DHT22;36499;46.484;13.832;2023-03-04T09:46:10;6.60;99.90
12470;DHT22;36499;46.484;13.832;2023-03-04T09:48:44;6.70;99.90
12470;DHT22;36499;46.484;13.832;2023-03-04T09:51:21;6.80;99.90
12470;DHT22;36499;46.484;13.832;2023-03-04T09:54:04;6.90;99.90
12470;DHT22;36499;46.484;13.832;2023-03-04T09:56:36;7.00;99.90
12470;DHT22;36499;46.484;13.832;2023-03-04T09:59:14;7.10;99.90
12470;DHT22;36499;46.484;13.832;2023-03-04T10:01:50;7.20;99.90
12470;DHT22;36499;46.484;13.832;2023-03-04T10:04:29;7.30;99.90
12470;DHT22;36499;46.484;13.832;2023-03-04T10:07:01;7.40;99.90
12470;DHT22;36499;46.484;13.832;2023-03-04T10:09:38;7.50;99.90
12470;DHT22;36499;46.484;13.832;2023-03-04T10:12:14;7.50;99.90
12470;DHT22;36499;46.484;13.832;2023-03-04T10:14:49;7.60;99.90
12470;DHT22;36499;46.484;13.832;2023-03-04T10:17:28;7.70;99.90
12470;DHT22;36499;46.484;13.832;2023-03-04T10:20:04;7.70;97.90
12470;DHT22;36499;46.484;13.832;2023-03-04T10:22:41;7.90;97.20
12470;DHT22;36499;46.484;13.832;2023-03-04T10:25:19;8.00;97.10
12470;DHT22;36499;46.484;13.832;2023-03-04T10:27:51;8.10;97.50
12470;DHT22;36499;46.484;13.832;2023-03-04T10:30:31;8.20;97.00
12470;DHT22;36499;46.484;13.832;2023-03-04T10:33:12;8.40;97.90
12470;DHT22;36499;46.484;13.832;2023-03-04T10:35:44;8.50;96.80
12470;DHT22;36499;46.484;13.832;2023-03-04T10:38:14;8.70;96.60
12470;DHT22;36499;46.484;13.832;2023-03-04T10:40:44;8.70;95.60
12470;DHT22;36499;46.484;13.832;2023-03-04T10:43:16;8.80;94.50
12470;DHT22;36499;46.484;13.832;2023-03-04T10:45:45;9.00;92.10
12470;DHT22;36499;46.484;13.832;2023-03-04T10:48:22;9.00;90.90
12470;DHT22;36499;46.484;13.832;2023-03-04T10:50:51;9.20;88.90
12470;DHT22;36499;46.484;13.832;2023-03-04T10:53:30;9.30;88.00
12470;DHT22;36499;46.484;13.832;2023-03-04T10:55:59;9.30;83.70
12470;DHT22;36499;46.484;13.832;2023-03-04T10:58:28;9.50;83.20
12470;DHT22;36499;46.484;13.832;2023-03-04T11:01:00;9.50;81.10
12470;DHT22;36499;46.484;13.832;2023-03-04T11:03:34;9.60;80.90
12470;DHT22;36499;46.484;13.832;2023-03-04T11:06:11;9.60;77.30
12470;DHT22;36499;46.484;13.832;2023-03-04T11:08:44;9.70;77.40
12470;DHT22;36499;46.484;13.832;2023-03-04T11:11:31;9.80;74.00
12470;DHT22;36499;46.484;13.832;2023-03-04T11:14:13;9.80;72.50
12470;DHT22;36499;46.484;13.832;2023-03-04T11:16:52;9.80;73.30
12470;DHT22;36499;46.484;13.832;2023-03-04T11:19:27;10.00;71.80
12470;DHT22;36499;46.484;13.832;2023-03-04T11:21:57;10.10;70.40
12470;DHT22;36499;46.484;13.832;2023-03-04T11:24:28;10.20;71.60
12470;DHT22;36499;46.484;13.832;2023-03-04T11:27:02;10.20;68.50
12470;DHT22;36499;46.484;13.832;2023-03-04T11:29:36;10.20;68.70
12470;DHT22;36499;46.484;13.832;2023-03-04T11:32:12;10.30;66.40
12470;DHT22;36499;46.484;13.832;2023-03-04T11:34:48;10.50;66.50
12470;DHT22;36499;46.484;13.832;2023-03-04T11:37:21;10.50;62.80
12470;DHT22;36499;46.484;13.832;2023-03-04T11:39:57;10.60;63.10
12470;DHT22;36499;46.484;13.832;2023-03-04T11:42:32;10.70;60.20
12470;DHT22;36499;46.484;13.832;2023-03-04T11:45:10;10.80;60.30
12470;DHT22;36499;46.484;13.832;2023-03-04T11:47:58;10.80;58.20
12470;DHT22;36499;46.484;13.832;2023-03-04T11:50:42;10.90;60.00
12470;DHT22;36499;46.484;13.832;2023-03-04T11:53:39;10.90;57.30
12470;DHT22;36499;46.484;13.832;2023-03-04T11:56:26;11.00;58.00
12470;DHT22;36499;46.484;13.832;2023-03-04T11:59:34;11.00;54.90
12470;DHT22;36499;46.484;13.832;2023-03-04T12:02:21;11.10;54.80
12470;DHT22;36499;46.484;13.832;2023-03-04T12:05:20;11.20;53.80
12470;DHT22;36499;46.484;13.832;2023-03-04T12:08:34;11.30;53.90
12470;DHT22;36499;46.484;13.832;2023-03-04T12:11:15;11.40;52.20
12470;DHT22;36499;46.484;13.832;2023-03-04T12:14:15;11.50;52.60
12470;DHT22;36499;46.484;13.832;2023-03-04T12:17:23;11.60;51.40
12470;DHT22;36499;46.484;13.832;2023-03-04T12:20:40;11.70;51.70
12470;DHT22;36499;46.484;13.832;2023-03-04T12:23:25;11.70;49.30
12470;DHT22;36499;46.484;13.832;2023-03-04T12:26:14;11.70;50.70
12470;DHT22;36499;46.484;13.832;2023-03-04T12:28:54;11.70;49.50
12470;DHT22;36499;46.484;13.832;2023-03-04T12:31:37;11.90;51.40
12470;DHT22;36499;46.484;13.832;2023-03-04T12:34:32;11.90;49.50
12470;DHT22;36499;46.484;13.832;2023-03-04T12:37:30;12.00;50.20
12470;DHT22;36499;46.484;13.832;2023-03-04T12:40:43;12.10;50.00
12470;DHT22;36499;46.484;13.832;2023-03-04T12:43:26;12.20;49.10
12470;DHT22;36499;46.484;13.832;2023-03-04T12:46:26;12.20;48.30
12470;DHT22;36499;46.484;13.832;2023-03-04T12:49:17;12.20;48.10
12470;DHT22;36499;46.484;13.832;2023-03-04T12:52:00;12.10;49.10
12470;DHT22;36499;46.484;13.832;2023-03-04T12:54:36;12.10;49.60
12470;DHT22;36499;46.484;13.832;2023-03-04T12:57:11;12.20;49.30
12470;DHT22;36499;46.484;13.832;2023-03-04T12:59:43;12.20;49.70
12470;DHT22;36499;46.484;13.832;2023-03-04T13:02:48;12.40;51.20
12470;DHT22;36499;46.484;13.832;2023-03-04T13:05:32;12.60;50.60
12470;DHT22;36499;46.484;13.832;2023-03-04T13:08:20;12.80;54.70
12470;DHT22;36499;46.484;13.832;2023-03-04T13:11:01;13.10;47.60
12470;DHT22;36499;46.484;13.832;2023-03-04T13:13:38;13.50;44.90
12470;DHT22;36499;46.484;13.832;2023-03-04T13:16:27;13.70;41.60
12470;DHT22;36499;46.484;13.832;2023-03-04T13:18:57;14.00;46.70
12470;DHT22;36499;46.484;13.832;2023-03-04T13:21:25;14.30;47.20
12470;DHT22;36499;46.484;13.832;2023-03-04T13:23:57;14.50;49.50
12470;DHT22;36499;46.484;13.832;2023-03-04T13:26:29;14.50;53.20
12470;DHT22;36499;46.484;13.832;2023-03-04T13:29:33;14.50;53.40
12470;DHT22;36499;46.484;13.832;2023-03-04T13:32:03;14.60;54.80
12470;DHT22;36499;46.484;13.832;2023-03-04T13:34:43;14.40;54.00
12470;DHT22;36499;46.484;13.832;2023-03-04T13:37:30;14.40;53.50
12470;DHT22;36499;46.484;13.832;2023-03-04T13:40:33;14.30;54.30
12470;DHT22;36499;46.484;13.832;2023-03-04T13:43:23;14.30;54.20
12470;DHT22;36499;46.484;13.832;2023-03-04T13:45:54;14.10;54.30
12470;DHT22;36499;46.484;13.832;2023-03-04T13:48:33;14.10;54.20
12470;DHT22;36499;46.484;13.832;2023-03-04T13:51:01;14.00;55.20
12470;DHT22;36499;46.484;13.832;2023-03-04T13:53:36;13.80;56.00
12470;DHT22;36499;46.484;13.832;2023-03-04T13:59:23;13.90;55.80
12470;DHT22;36499;46.484;13.832;2023-03-04T14:02:00;13.70;55.80
12470;DHT22;36499;46.484;13.832;2023-03-04T14:04:31;13.70;57.00
12470;DHT22;36499;46.484;13.832;2023-03-04T14:07:02;13.70;57.10
12470;DHT22;36499;46.484;13.832;2023-03-04T14:09:53;13.70;57.90
12470;DHT22;36499;46.484;13.832;2023-03-04T14:12:22;13.60;57.10
12470;DHT22;36499;46.484;13.832;2023-03-04T14:14:51;13.60;58.40
12470;DHT22;36499;46.484;13.832;2023-03-04T14:17:26;13.60;57.80
12470;DHT22;36499;46.484;13.832;2023-03-04T14:19:56;13.60;58.50
12470;DHT22;36499;46.484;13.832;2023-03-04T14:22:25;13.50;59.30
12470;DHT22;36499;46.484;13.832;2023-03-04T14:24:56;13.40;58.40
12470;DHT22;36499;46.484;13.832;2023-03-04T14:27:28;13.40;59.30
12470;DHT22;36499;46.484;13.832;2023-03-04T14:29:59;13.40;59.50
12470;DHT22;36499;46.484;13.832;2023-03-04T14:32:29;13.20;59.60
12470;DHT22;36499;46.484;13.832;2023-03-04T14:35:00;13.10;60.50
12470;DHT22;36499;46.484;13.832;2023-03-04T14:37:34;13.10;60.50
12470;DHT22;36499;46.484;13.832;2023-03-04T14:40:18;13.00;60.80
12470;DHT22;36499;46.484;13.832;2023-03-04T14:42:49;12.80;60.60
12470;DHT22;36499;46.484;13.832;2023-03-04T14:45:23;12.80;60.80
12470;DHT22;36499;46.484;13.832;2023-03-04T14:47:53;12.50;59.50
12470;DHT22;36499;46.484;13.832;2023-03-04T14:50:24;12.30;60.70
12470;DHT22;36499;46.484;13.832;2023-03-04T14:53:08;12.20;60.60
12470;DHT22;36499;46.484;13.832;2023-03-04T14:55:54;11.90;62.70
12470;DHT22;36499;46.484;13.832;2023-03-04T14:58:24;11.70;63.60
12470;DHT22;36499;46.484;13.832;2023-03-04T15:01:05;11.50;62.50
12470;DHT22;36499;46.484;13.832;2023-03-04T15:03:41;11.30;63.60
12470;DHT22;36499;46.484;13.832;2023-03-04T15:06:16;11.00;62.10
12470;DHT22;36499;46.484;13.832;2023-03-04T15:08:45;10.90;63.00
12470;DHT22;36499;46.484;13.832;2023-03-04T15:11:21;10.70;65.20
12470;DHT22;36499;46.484;13.832;2023-03-04T15:13:51;10.50;65.60
12470;DHT22;36499;46.484;13.832;2023-03-04T15:16:21;10.00;66.40
12470;DHT22;36499;46.484;13.832;2023-03-04T15:18:56;9.40;66.10
12470;DHT22;36499;46.484;13.832;2023-03-04T15:21:33;8.90;69.60
12470;DHT22;36499;46.484;13.832;2023-03-04T15:24:03;8.60;71.20
12470;DHT22;36499;46.484;13.832;2023-03-04T15:26:31;8.30;72.90
12470;DHT22;36499;46.484;13.832;2023-03-04T15:29:00;8.00;72.00
12470;DHT22;36499;46.484;13.832;2023-03-04T15:31:29;7.70;72.90
12470;DHT22;36499;46.484;13.832;2023-03-04T15:33:58;7.50;74.00
12470;DHT22;36499;46.484;13.832;2023-03-04T15:36:25;7.40;74.30
12470;DHT22;36499;46.484;13.832;2023-03-04T15:38:52;7.20;74.30
12470;DHT22;36499;46.484;13.832;2023-03-04T15:41:23;7.10;77.10
12470;DHT22;36499;46.484;13.832;2023-03-04T15:43:52;6.90;75.90
12470;DHT22;36499;46.484;13.832;2023-03-04T15:46:19;7.00;77.50
12470;DHT22;36499;46.484;13.832;2023-03-04T15:48:47;6.80;77.20
12470;DHT22;36499;46.484;13.832;2023-03-04T15:51:19;6.70;78.00
12470;DHT22;36499;46.484;13.832;2023-03-04T15:53:49;6.40;78.80